This is the latest recevied weather packets stored in our database for station/object OE-11141. If no packets are shown the sender has not sent any weather packets the latest 10 day(s).
| Time | Temp. | Humidity | Pressure | Rain* | Wind** | Luminosity | Snow |
|---|---|---|---|---|---|---|---|
| 1787871904 | 18.33° C | 87% | 1015 hPa | 0 mm | - | 0 W/m² | - |
| 1787870478 | 18.33° C | 86% | 1015.3 hPa | 0 mm | - | 0 W/m² | - |
| 1787870105 | 18.33° C | 89% | 1015.3 hPa | 0 mm | - | 0 W/m² | - |
| 1787869505 | 18.33° C | 91% | 1015.5 hPa | 0 mm | - | 0 W/m² | - |
| 1787868678 | 18.89° C | 87% | 1015.2 hPa | 0 mm | - | 0 W/m² | - |
| 1787868304 | 18.89° C | 88% | 1015.3 hPa | 0 mm | - | 0 W/m² | - |
| 1787867705 | 18.89° C | 87% | 1015.4 hPa | 0 mm | - | 0 W/m² | - |
| 1787866878 | 19.44° C | 85% | 1015.3 hPa | 0 mm | - | 0 W/m² | - |
| 1787866504 | 19.44° C | 83% | 1015.1 hPa | 0 mm | - | 0 W/m² | - |
| 1787865905 | 19.44° C | 83% | 1015 hPa | 0 mm | - | 0 W/m² | - |
| 1787865078 | 19.44° C | 85% | 1014.8 hPa | 0 mm | - | 0 W/m² | - |
| 1787864704 | 19.44° C | 84% | 1015 hPa | 0 mm | - | 0 W/m² | - |
| 1787864104 | 20.56° C | 82% | 1014.8 hPa | 0 mm | - | 0 W/m² | - |
| 1787863278 | 19.44° C | 82% | 1014.7 hPa | 0 mm | - | 0 W/m² | - |
| 1787862905 | 21.11° C | 76% | 1014.5 hPa | 0 mm | - | 0 W/m² | - |
| 1787862305 | 21.67° C | 76% | 1014.3 hPa | 0 mm | - | 0 W/m² | - |
| 1787861478 | 21.11° C | 76% | 1014.3 hPa | 0 mm | - | 0 W/m² | - |
| 1787861105 | 20.56° C | 81% | 1014.3 hPa | 0 mm | - | 0 W/m² | - |
| 1787860505 | 21.67° C | 75% | 1013.8 hPa | 0 mm | - | 0 W/m² | - |
| 1787859679 | 22.22° C | 70% | 1013.7 hPa | 0 mm | - | 0 W/m² | - |
| 1787859305 | 21.67° C | 76% | 1013.7 hPa | 0 mm | - | 0 W/m² | - |
| 1787858705 | 22.78° C | 69% | 1013.3 hPa | 0 mm | - | 0 W/m² | - |
| 1787857878 | 22.78° C | 71% | 1013.2 hPa | 0 mm | - | 0 W/m² | - |
| 1787857505 | 22.78° C | 70% | 1013.2 hPa | 0 mm | - | 0 W/m² | - |
| 1787856905 | 22.22° C | 76% | 1013.3 hPa | 0 mm | - | 0 W/m² | - |
* Rain latest hour (hover to see other rain measurements)
** Current wind speed in m/s (hover to see current wind gust speed)